Superfast Baleares — EBXD — position and weather

sailwx.info

Track history (hours):
 
Tides and Currents Weather Stations Pressure Air Temp Water Temp Dewpoint Dewpoint Depression Visibility Wind Speed Wind Dir Waves Ship Positions

Superfast Baleares

Last reported at 2015-Jul-04 06:33 UTC. Time now 2015-Jul-04 11:47 UTC.
Position N 39°27' W 000°19'.

Length 210 m; draft 6 m.

Type: Ship (hazmat cat A). MMSI: 225405000.

Date/timePositionNaut miles runAvg speedWind from/ knotsBaromVisibWave heightAir tempDewpointWater temp
2015-Jul-04 06:33N 39°27' W 000°19'3 2.8
2015-Jul-04 05:31N 39°25' W 000°17'7612.4
2015-Jul-03 23:22N 39°26' E 001°22'1112.4
2015-Jul-03 22:28N 39°26' E 001°36'1211.9
2015-Jul-03 21:25N 39°25' E 001°52'1011.9
2015-Jul-03 20:33N 39°25' E 002°06'1212.0
2015-Jul-03 19:33N 39°25' E 002°21'1111.1
2015-Jul-03 18:33N 39°29' E 002°35'5 5.3
2015-Jul-03 17:33N 39°34' E 002°38'0 0.0
2015-Jul-03 16:33N 39°34' E 002°38'0 0.0
2015-Jul-03 15:33N 39°34' E 002°38'0 0.0
2015-Jul-03 14:33N 39°34' E 002°38'0 0.0
2015-Jul-03 13:33N 39°34' E 002°38'0 0.0
2015-Jul-03 12:33N 39°34' E 002°38'0 0.0
2015-Jul-03 11:33N 39°34' E 002°38'0 0.0
2015-Jul-03 10:33N 39°34' E 002°38'0 0.0
2015-Jul-03 09:33N 39°34' E 002°38'0 0.0
2015-Jul-03 08:33N 39°34' E 002°38'0 0.0
2015-Jul-03 07:33N 39°34' E 002°38'0 0.0
2015-Jul-03 06:33N 39°34' E 002°38'1 1.0
2015-Jul-03 05:34N 39°33' E 002°39'1515.1
2015-Jul-03 04:33N 39°25' E 002°22'1817.8
2015-Jul-03 03:33N 39°26' E 001°58'1817.9
2015-Jul-03 02:33N 39°26' E 001°35'1514.8
2015-Jul-03 01:33N 39°25' E 001°16'1311.0
2015-Jul-03 00:21N 39°26' E 000°59'6010.4
2015-Jul-02 18:33N 39°27' W 000°19'1 0.0
2015-Jul-02 06:33N 39°27' W 000°19'4 3.8
2015-Jul-02 05:32N 39°25' W 000°15'7512.5
2015-Jul-01 23:33N 39°26' E 001°22'1212.0
2015-Jul-01 22:33N 39°26' E 001°37'1211.9
2015-Jul-01 21:33N 39°26' E 001°52'1211.8
2015-Jul-01 20:33N 39°25' E 002°08'1211.9
2015-Jul-01 19:33N 39°25' E 002°23'1111.0
2015-Jul-01 18:33N 39°30' E 002°36'4 4.0
2015-Jul-01 17:34N 39°34' E 002°38'0 0.0
2015-Jul-01 16:34N 39°34' E 002°38'0 0.0
2015-Jul-01 15:34N 39°34' E 002°38'0 0.0
2015-Jul-01 14:34N 39°34' E 002°38'0 0.0
2015-Jul-01 13:34N 39°34' E 002°38'0 0.0
2015-Jul-01 12:34N 39°34' E 002°38'0 0.0
2015-Jul-01 11:33N 39°34' E 002°38'0 0.0
2015-Jul-01 10:33N 39°34' E 002°38'0 0.0
2015-Jul-01 09:33N 39°34' E 002°38'0 0.0
2015-Jul-01 08:33N 39°34' E 002°38'0 0.0
2015-Jul-01 07:33N 39°34' E 002°38'0 0.0
2015-Jul-01 06:33N 39°34' E 002°38'1 0.9
2015-Jul-01 05:33N 39°33' E 002°39'1515.1
2015-Jul-01 04:33N 39°25' E 002°22'1817.5
2015-Jul-01 03:30N 39°26' E 001°58'1111.5
2015-Jul-01 02:33N 39°26' E 001°44'1111.3
2015-Jul-01 01:33N 39°26' E 001°29'8111.5
2015-Jun-30 18:33N 39°26' W 000°15'4 0.2
2015-Jun-29 19:27N 39°27' W 000°19'0 0.0
2015-Jun-29 06:18N 39°27' W 000°19'0 0.0
2015-Jun-29 05:31N 39°27' W 000°19'0 0.0
2015-Jun-29 04:32N 39°27' W 000°19'0 0.0
2015-Jun-29 03:33N 39°27' W 000°19'0 0.0
2015-Jun-29 02:33N 39°27' W 000°19'0 0.0
2015-Jun-29 01:33N 39°27' W 000°19'0 0.0
2015-Jun-29 00:27N 39°27' W 000°19'0 0.0
2015-Jun-28 23:33N 39°27' W 000°19'0 0.0
2015-Jun-28 06:16N 39°27' W 000°19'0 0.0
2015-Jun-28 05:30N 39°27' W 000°19'0 0.0
2015-Jun-28 04:33N 39°27' W 000°19'0 0.0
2015-Jun-28 03:30N 39°27' W 000°19'0 0.0
2015-Jun-28 02:33N 39°27' W 000°19'0 0.0
2015-Jun-28 01:33N 39°27' W 000°19'0 0.0
2015-Jun-28 00:06N 39°27' W 000°19'0 0.0
2015-Jun-27 23:24N 39°27' W 000°19'0 0.0
2015-Jun-27 10:33N 39°27' W 000°19'0 0.0
2015-Jun-27 09:17N 39°27' W 000°19'0 0.0
2015-Jun-27 08:26N 39°27' W 000°19'1 0.4
2015-Jun-27 06:33N 39°27' W 000°19'6311.7
2015-Jun-27 01:10N 39°26' E 001°03'1011.5
2015-Jun-27 00:20N 39°26' E 001°15'1011.3
2015-Jun-26 23:27N 39°26' E 001°28'1011.6
2015-Jun-26 22:33N 39°26' E 001°41'1111.0
2015-Jun-26 21:33N 39°26' E 001°56'1111.0
2015-Jun-26 20:32N 39°25' E 002°10'1111.1
2015-Jun-26 19:33N 39°25' E 002°24'1010.3
2015-Jun-26 18:33N 39°30' E 002°36'4 3.5
2015-Jun-26 17:27N 39°34' E 002°38'0 0.0
2015-Jun-26 16:24N 39°34' E 002°38'0 0.0
2015-Jun-26 15:33N 39°34' E 002°38'0 0.0
2015-Jun-26 14:33N 39°34' E 002°38'0 0.0
2015-Jun-26 13:33N 39°34' E 002°38'0 0.0
2015-Jun-26 12:30N 39°34' E 002°38'0 0.0
2015-Jun-26 11:33N 39°34' E 002°38'0 0.0
2015-Jun-26 10:33N 39°34' E 002°38'0 0.0
2015-Jun-26 09:33N 39°34' E 002°38'0 0.0
2015-Jun-26 08:33N 39°34' E 002°38'0 0.0
2015-Jun-26 07:33N 39°34' E 002°38'0 0.0
2015-Jun-26 06:33N 39°34' E 002°38'1 0.8
2015-Jun-26 05:34N 39°33' E 002°39'1615.6
2015-Jun-26 04:34N 39°25' E 002°21'1515.0
2015-Jun-26 03:32N 39°26' E 002°01'1211.8
2015-Jun-26 02:28N 39°25' E 001°45'1411.8
2015-Jun-26 01:18N 39°25' E 001°27'911.7
2015-Jun-26 00:33N 39°25' E 001°16'1311.8
2015-Jun-25 23:28N 39°25' E 000°59'5711.6
2015-Jun-25 18:30N 39°26' W 000°15'4 0.4
2015-Jun-25 08:32N 39°27' W 000°19'0 0.0
2015-Jun-25 06:23N 39°27' W 000°19'9211.8
2015-Jun-24 22:33N 39°25' E 001°40'1211.8
2015-Jun-24 21:33N 39°25' E 001°55'1211.6
2015-Jun-24 20:33N 39°25' E 002°10'1211.7
2015-Jun-24 19:33N 39°25' E 002°25'1010.2
2015-Jun-24 18:33N 39°30' E 002°37'3 3.3
2015-Jun-24 17:32N 39°34' E 002°38'0 0.0
2015-Jun-24 16:32N 39°34' E 002°38'0 0.0
2015-Jun-24 15:32N 39°34' E 002°38'0 0.0
2015-Jun-24 14:32N 39°34' E 002°38'0 0.0
2015-Jun-24 13:32N 39°34' E 002°38'0 0.0
2015-Jun-24 12:32N 39°34' E 002°38'0 0.0
2015-Jun-24 11:32N 39°34' E 002°38'0 0.0
2015-Jun-24 10:32N 39°34' E 002°38'0 0.0
2015-Jun-24 09:33N 39°34' E 002°38'0 0.0
2015-Jun-24 08:33N 39°34' E 002°38'0 0.0
2015-Jun-24 07:33N 39°34' E 002°38'0 0.0
2015-Jun-24 06:33N 39°34' E 002°38'  
Track history (hours):
 
Tides and Currents Weather Stations Pressure Air Temp Water Temp Dewpoint Dewpoint Depression Visibility Wind Speed Wind Dir Waves Ship Positions

Superfast Baleares

Last reported at 2015-Jul-04 06:33 UTC. Time now 2015-Jul-04 11:47 UTC.
Position N 39°27' W 000°19'.

Length 210 m; draft 6 m.

Type: Ship (hazmat cat A). MMSI: 225405000.

Date/timePositionNaut miles runAvg speedWind from/ knotsBaromVisibWave heightAir tempDewpointWater temp
2015-Jul-04 06:33N 39°27' W 000°19'3 2.8
2015-Jul-04 05:31N 39°25' W 000°17'7612.4
2015-Jul-03 23:22N 39°26' E 001°22'1112.4
2015-Jul-03 22:28N 39°26' E 001°36'1211.9
2015-Jul-03 21:25N 39°25' E 001°52'1011.9
2015-Jul-03 20:33N 39°25' E 002°06'1212.0
2015-Jul-03 19:33N 39°25' E 002°21'1111.1
2015-Jul-03 18:33N 39°29' E 002°35'5 5.3
2015-Jul-03 17:33N 39°34' E 002°38'0 0.0
2015-Jul-03 16:33N 39°34' E 002°38'0 0.0
2015-Jul-03 15:33N 39°34' E 002°38'0 0.0
2015-Jul-03 14:33N 39°34' E 002°38'0 0.0
2015-Jul-03 13:33N 39°34' E 002°38'0 0.0
2015-Jul-03 12:33N 39°34' E 002°38'0 0.0
2015-Jul-03 11:33N 39°34' E 002°38'0 0.0
2015-Jul-03 10:33N 39°34' E 002°38'0 0.0
2015-Jul-03 09:33N 39°34' E 002°38'0 0.0
2015-Jul-03 08:33N 39°34' E 002°38'0 0.0
2015-Jul-03 07:33N 39°34' E 002°38'0 0.0
2015-Jul-03 06:33N 39°34' E 002°38'1 1.0
2015-Jul-03 05:34N 39°33' E 002°39'1515.1
2015-Jul-03 04:33N 39°25' E 002°22'1817.8
2015-Jul-03 03:33N 39°26' E 001°58'1817.9
2015-Jul-03 02:33N 39°26' E 001°35'1514.8
2015-Jul-03 01:33N 39°25' E 001°16'1311.0
2015-Jul-03 00:21N 39°26' E 000°59'6010.4
2015-Jul-02 18:33N 39°27' W 000°19'1 0.0
2015-Jul-02 06:33N 39°27' W 000°19'4 3.8
2015-Jul-02 05:32N 39°25' W 000°15'7512.5
2015-Jul-01 23:33N 39°26' E 001°22'1212.0
2015-Jul-01 22:33N 39°26' E 001°37'1211.9
2015-Jul-01 21:33N 39°26' E 001°52'1211.8
2015-Jul-01 20:33N 39°25' E 002°08'1211.9
2015-Jul-01 19:33N 39°25' E 002°23'1111.0
2015-Jul-01 18:33N 39°30' E 002°36'4 4.0
2015-Jul-01 17:34N 39°34' E 002°38'0 0.0
2015-Jul-01 16:34N 39°34' E 002°38'0 0.0
2015-Jul-01 15:34N 39°34' E 002°38'0 0.0
2015-Jul-01 14:34N 39°34' E 002°38'0 0.0
2015-Jul-01 13:34N 39°34' E 002°38'0 0.0
2015-Jul-01 12:34N 39°34' E 002°38'0 0.0
2015-Jul-01 11:33N 39°34' E 002°38'0 0.0
2015-Jul-01 10:33N 39°34' E 002°38'0 0.0
2015-Jul-01 09:33N 39°34' E 002°38'0 0.0
2015-Jul-01 08:33N 39°34' E 002°38'0 0.0
2015-Jul-01 07:33N 39°34' E 002°38'0 0.0
2015-Jul-01 06:33N 39°34' E 002°38'1 0.9
2015-Jul-01 05:33N 39°33' E 002°39'1515.1
2015-Jul-01 04:33N 39°25' E 002°22'1817.5
2015-Jul-01 03:30N 39°26' E 001°58'1111.5
2015-Jul-01 02:33N 39°26' E 001°44'1111.3
2015-Jul-01 01:33N 39°26' E 001°29'8111.5
2015-Jun-30 18:33N 39°26' W 000°15'4 0.2
2015-Jun-29 19:27N 39°27' W 000°19'0 0.0
2015-Jun-29 06:18N 39°27' W 000°19'0 0.0
2015-Jun-29 05:31N 39°27' W 000°19'0 0.0
2015-Jun-29 04:32N 39°27' W 000°19'0 0.0
2015-Jun-29 03:33N 39°27' W 000°19'0 0.0
2015-Jun-29 02:33N 39°27' W 000°19'0 0.0
2015-Jun-29 01:33N 39°27' W 000°19'0 0.0
2015-Jun-29 00:27N 39°27' W 000°19'0 0.0
2015-Jun-28 23:33N 39°27' W 000°19'0 0.0
2015-Jun-28 06:16N 39°27' W 000°19'0 0.0
2015-Jun-28 05:30N 39°27' W 000°19'0 0.0
2015-Jun-28 04:33N 39°27' W 000°19'0 0.0
2015-Jun-28 03:30N 39°27' W 000°19'0 0.0
2015-Jun-28 02:33N 39°27' W 000°19'0 0.0
2015-Jun-28 01:33N 39°27' W 000°19'0 0.0
2015-Jun-28 00:06N 39°27' W 000°19'0 0.0
2015-Jun-27 23:24N 39°27' W 000°19'0 0.0
2015-Jun-27 10:33N 39°27' W 000°19'0 0.0
2015-Jun-27 09:17N 39°27' W 000°19'0 0.0
2015-Jun-27 08:26N 39°27' W 000°19'1 0.4
2015-Jun-27 06:33N 39°27' W 000°19'6311.7
2015-Jun-27 01:10N 39°26' E 001°03'1011.5
2015-Jun-27 00:20N 39°26' E 001°15'1011.3
2015-Jun-26 23:27N 39°26' E 001°28'1011.6
2015-Jun-26 22:33N 39°26' E 001°41'1111.0
2015-Jun-26 21:33N 39°26' E 001°56'1111.0
2015-Jun-26 20:32N 39°25' E 002°10'1111.1
2015-Jun-26 19:33N 39°25' E 002°24'1010.3
2015-Jun-26 18:33N 39°30' E 002°36'4 3.5
2015-Jun-26 17:27N 39°34' E 002°38'0 0.0
2015-Jun-26 16:24N 39°34' E 002°38'0 0.0
2015-Jun-26 15:33N 39°34' E 002°38'0 0.0
2015-Jun-26 14:33N 39°34' E 002°38'0 0.0
2015-Jun-26 13:33N 39°34' E 002°38'0 0.0
2015-Jun-26 12:30N 39°34' E 002°38'0 0.0
2015-Jun-26 11:33N 39°34' E 002°38'0 0.0
2015-Jun-26 10:33N 39°34' E 002°38'0 0.0
2015-Jun-26 09:33N 39°34' E 002°38'0 0.0
2015-Jun-26 08:33N 39°34' E 002°38'0 0.0
2015-Jun-26 07:33N 39°34' E 002°38'0 0.0
2015-Jun-26 06:33N 39°34' E 002°38'1 0.8
2015-Jun-26 05:34N 39°33' E 002°39'1615.6
2015-Jun-26 04:34N 39°25' E 002°21'1515.0
2015-Jun-26 03:32N 39°26' E 002°01'1211.8
2015-Jun-26 02:28N 39°25' E 001°45'1411.8
2015-Jun-26 01:18N 39°25' E 001°27'911.7
2015-Jun-26 00:33N 39°25' E 001°16'1311.8
2015-Jun-25 23:28N 39°25' E 000°59'5711.6
2015-Jun-25 18:30N 39°26' W 000°15'4 0.4
2015-Jun-25 08:32N 39°27' W 000°19'0 0.0
2015-Jun-25 06:23N 39°27' W 000°19'9211.8
2015-Jun-24 22:33N 39°25' E 001°40'1211.8
2015-Jun-24 21:33N 39°25' E 001°55'1211.6
2015-Jun-24 20:33N 39°25' E 002°10'1211.7
2015-Jun-24 19:33N 39°25' E 002°25'1010.2
2015-Jun-24 18:33N 39°30' E 002°37'3 3.3
2015-Jun-24 17:32N 39°34' E 002°38'0 0.0
2015-Jun-24 16:32N 39°34' E 002°38'0 0.0
2015-Jun-24 15:32N 39°34' E 002°38'0 0.0
2015-Jun-24 14:32N 39°34' E 002°38'0 0.0
2015-Jun-24 13:32N 39°34' E 002°38'0 0.0
2015-Jun-24 12:32N 39°34' E 002°38'0 0.0
2015-Jun-24 11:32N 39°34' E 002°38'0 0.0
2015-Jun-24 10:32N 39°34' E 002°38'0 0.0
2015-Jun-24 09:33N 39°34' E 002°38'0 0.0
2015-Jun-24 08:33N 39°34' E 002°38'0 0.0
2015-Jun-24 07:33N 39°34' E 002°38'0 0.0
2015-Jun-24 06:33N 39°34' E 002°38'  

Dump ship's entire track history